sensor_id;sensor_type;location;lat;lon;timestamp;pressure;altitude;pressure_sealevel;temperature;humidity
31403;BME280;18039;52.188;21.024;2022-09-03T00:00:17;76692.22;;;-141.45;52.79
31403;BME280;18039;52.188;21.024;2022-09-03T00:03:15;76694.25;;;-141.45;52.75
31403;BME280;18039;52.188;21.024;2022-09-03T00:08:29;76694.25;;;-141.45;52.94
31403;BME280;18039;52.188;21.024;2022-09-03T00:11:03;76698.31;;;-141.45;53.24
31403;BME280;18039;52.188;21.024;2022-09-03T00:13:43;76702.34;;;-141.45;53.44
31403;BME280;18039;52.188;21.024;2022-09-03T00:16:13;76706.41;;;-141.45;53.54
31403;BME280;18039;52.188;21.024;2022-09-03T00:18:44;76722.63;;;-141.45;53.92
31403;BME280;18039;52.188;21.024;2022-09-03T00:21:20;76722.63;;;-141.45;54.93
31403;BME280;18039;52.188;21.024;2022-09-03T00:23:51;76730.75;;;-141.45;55.50
31403;BME280;18039;52.188;21.024;2022-09-03T00:26:24;76734.78;;;-141.45;56.11
31403;BME280;18039;52.188;21.024;2022-09-03T00:28:58;76742.91;;;-141.45;56.39
31403;BME280;18039;52.188;21.024;2022-09-03T00:31:32;76755.06;;;-141.45;56.39
31403;BME280;18039;52.188;21.024;2022-09-03T00:34:12;76763.16;;;-141.45;56.67
31403;BME280;18039;52.188;21.024;2022-09-03T00:36:43;76775.34;;;-141.45;56.98
31403;BME280;18039;52.188;21.024;2022-09-03T00:39:16;76771.28;;;-141.45;57.26
31403;BME280;18039;52.188;21.024;2022-09-03T00:47:10;76799.66;;;-141.45;57.86
31403;BME280;18039;52.188;21.024;2022-09-03T00:50:14;76803.72;;;-141.45;58.04
31403;BME280;18039;52.188;21.024;2022-09-03T00:52:59;76815.88;;;-141.45;58.25
31403;BME280;18039;52.188;21.024;2022-09-03T00:58:35;76826.00;;;-141.45;58.41
31403;BME280;18039;52.188;21.024;2022-09-03T01:03:58;76844.25;;;-141.45;58.62
31403;BME280;18039;52.188;21.024;2022-09-03T01:14:43;76901.03;;;-141.45;60.30
31403;BME280;18039;52.188;21.024;2022-09-03T01:17:33;76911.16;;;-141.45;60.57
31403;BME280;18039;52.188;21.024;2022-09-03T01:26:02;76925.34;;;-141.45;61.16
31403;BME280;18039;52.188;21.024;2022-09-03T01:28:21;76927.38;;;-141.45;61.40
31403;BME280;18039;52.188;21.024;2022-09-03T01:31:00;76939.53;;;-141.45;61.83
31403;BME280;18039;52.188;21.024;2022-09-03T01:33:43;76943.59;;;-141.45;61.96
31403;BME280;18039;52.188;21.024;2022-09-03T01:36:36;76941.56;;;-141.45;61.91
31403;BME280;18039;52.188;21.024;2022-09-03T01:39:07;76943.59;;;-141.45;61.92
31403;BME280;18039;52.188;21.024;2022-09-03T01:50:22;76961.84;;;-141.45;62.54
31403;BME280;18039;52.188;21.024;2022-09-03T01:53:15;76969.94;;;-141.45;62.87
31403;BME280;18039;52.188;21.024;2022-09-03T01:56:01;76969.94;;;-141.45;62.88
31403;BME280;18039;52.188;21.024;2022-09-03T01:58:38;76969.94;;;-141.45;62.95
31403;BME280;18039;52.188;21.024;2022-09-03T02:01:13;76965.91;;;-141.45;62.99
31403;BME280;18039;52.188;21.024;2022-09-03T02:03:44;76965.91;;;-141.45;62.99
31403;BME280;18039;52.188;21.024;2022-09-03T02:06:11;76978.06;;;-141.45;63.24
31403;BME280;18039;52.188;21.024;2022-09-03T02:08:38;76982.13;;;-141.45;63.54
31403;BME280;18039;52.188;21.024;2022-09-03T02:11:07;76982.13;;;-141.45;63.70
31403;BME280;18039;52.188;21.024;2022-09-03T02:13:41;76986.16;;;-141.45;63.47
31403;BME280;18039;52.188;21.024;2022-09-03T02:16:15;76990.22;;;-141.45;63.89
31403;BME280;18039;52.188;21.024;2022-09-03T02:18:45;76998.34;;;-141.45;63.94
31403;BME280;18039;52.188;21.024;2022-09-03T02:21:20;77002.41;;;-141.45;64.26
31403;BME280;18039;52.188;21.024;2022-09-03T02:23:48;76998.34;;;-141.45;64.32
31403;BME280;18039;52.188;21.024;2022-09-03T02:26:21;76998.34;;;-141.45;64.45
31403;BME280;18039;52.188;21.024;2022-09-03T02:28:50;76998.34;;;-141.45;64.36
31403;BME280;18039;52.188;21.024;2022-09-03T02:31:17;77002.41;;;-141.45;64.51
31403;BME280;18039;52.188;21.024;2022-09-03T02:33:47;77008.47;;;-141.45;64.76
31403;BME280;18039;52.188;21.024;2022-09-03T02:36:19;77010.50;;;-141.45;64.40
31403;BME280;18039;52.188;21.024;2022-09-03T02:38:46;77010.50;;;-141.45;64.52
31403;BME280;18039;52.188;21.024;2022-09-03T02:41:13;77010.50;;;-141.45;64.57
31403;BME280;18039;52.188;21.024;2022-09-03T02:43:44;77006.44;;;-141.45;64.31
31403;BME280;18039;52.188;21.024;2022-09-03T02:46:17;77006.44;;;-141.45;64.66
31403;BME280;18039;52.188;21.024;2022-09-03T02:48:47;77014.56;;;-141.45;64.58
31403;BME280;18039;52.188;21.024;2022-09-03T02:51:14;77020.63;;;-141.45;64.73
31403;BME280;18039;52.188;21.024;2022-09-03T02:53:42;77022.66;;;-141.45;64.93
31403;BME280;18039;52.188;21.024;2022-09-03T02:56:09;77026.72;;;-141.45;64.78
31403;BME280;18039;52.188;21.024;2022-09-03T02:58:37;77030.78;;;-141.45;65.35
31403;BME280;18039;52.188;21.024;2022-09-03T03:01:04;77032.81;;;-141.45;65.22
31403;BME280;18039;52.188;21.024;2022-09-03T03:03:32;77034.84;;;-141.45;65.61
31403;BME280;18039;52.188;21.024;2022-09-03T03:06:03;77038.88;;;-141.45;65.71
31403;BME280;18039;52.188;21.024;2022-09-03T03:08:31;77038.88;;;-141.45;65.68
31403;BME280;18039;52.188;21.024;2022-09-03T03:11:00;77042.94;;;-141.45;65.79
31403;BME280;18039;52.188;21.024;2022-09-03T03:13:29;77042.94;;;-141.45;65.86
31403;BME280;18039;52.188;21.024;2022-09-03T03:16:01;77049.03;;;-141.45;65.90
31403;BME280;18039;52.188;21.024;2022-09-03T03:18:28;77038.88;;;-141.45;65.57
31403;BME280;18039;52.188;21.024;2022-09-03T03:20:55;77038.88;;;-141.45;65.54
31403;BME280;18039;52.188;21.024;2022-09-03T03:23:22;77038.88;;;-141.45;65.51
31403;BME280;18039;52.188;21.024;2022-09-03T03:25:49;77034.84;;;-141.45;65.39
31403;BME280;18039;52.188;21.024;2022-09-03T03:28:16;77034.84;;;-141.45;65.84
31403;BME280;18039;52.188;21.024;2022-09-03T03:30:44;77034.84;;;-141.45;65.42
31403;BME280;18039;52.188;21.024;2022-09-03T03:33:14;77030.78;;;-141.45;65.71
31403;BME280;18039;52.188;21.024;2022-09-03T03:35:41;77038.88;;;-141.45;65.39
31403;BME280;18039;52.188;21.024;2022-09-03T03:38:08;77034.84;;;-141.45;65.37
31403;BME280;18039;52.188;21.024;2022-09-03T03:40:37;77034.84;;;-141.45;65.32
31403;BME280;18039;52.188;21.024;2022-09-03T03:43:04;77042.94;;;-141.45;65.10
31403;BME280;18039;52.188;21.024;2022-09-03T03:45:31;77042.94;;;-141.45;65.36
31403;BME280;18039;52.188;21.024;2022-09-03T03:47:59;77040.91;;;-141.45;64.97
31403;BME280;18039;52.188;21.024;2022-09-03T03:50:26;77040.91;;;-141.45;64.88
31403;BME280;18039;52.188;21.024;2022-09-03T03:52:53;77042.94;;;-141.45;64.71
31403;BME280;18039;52.188;21.024;2022-09-03T03:55:20;77051.06;;;-141.45;64.99
31403;BME280;18039;52.188;21.024;2022-09-03T03:57:52;77063.22;;;-141.45;65.09
31403;BME280;18039;52.188;21.024;2022-09-03T04:00:19;77063.22;;;-141.45;65.16
31403;BME280;18039;52.188;21.024;2022-09-03T04:02:46;77069.28;;;-141.45;65.29
31403;BME280;18039;52.188;21.024;2022-09-03T04:05:13;77083.50;;;-141.45;65.75
31403;BME280;18039;52.188;21.024;2022-09-03T04:07:44;77093.63;;;-141.45;66.29
31403;BME280;18039;52.188;21.024;2022-09-03T04:10:12;77099.72;;;-141.45;66.46
31403;BME280;18039;52.188;21.024;2022-09-03T04:12:39;77095.66;;;-141.45;66.57
31403;BME280;18039;52.188;21.024;2022-09-03T04:15:06;77095.66;;;-141.45;66.71
31403;BME280;18039;52.188;21.024;2022-09-03T04:17:33;77095.66;;;-141.45;66.69
31403;BME280;18039;52.188;21.024;2022-09-03T04:20:00;77095.66;;;-141.45;67.03
31403;BME280;18039;52.188;21.024;2022-09-03T04:22:28;77095.66;;;-141.45;66.90
31403;BME280;18039;52.188;21.024;2022-09-03T04:24:55;77097.69;;;-141.45;66.77
31403;BME280;18039;52.188;21.024;2022-09-03T04:27:22;77099.72;;;-141.45;66.99
31403;BME280;18039;52.188;21.024;2022-09-03T04:29:49;77105.78;;;-141.45;67.26
31403;BME280;18039;52.188;21.024;2022-09-03T04:32:16;77103.75;;;-141.45;67.31
31403;BME280;18039;52.188;21.024;2022-09-03T04:35:09;77101.72;;;-141.45;67.24
31403;BME280;18039;52.188;21.024;2022-09-03T04:37:36;77099.72;;;-141.45;67.22
31403;BME280;18039;52.188;21.024;2022-09-03T04:40:03;77089.56;;;-141.45;67.19
31403;BME280;18039;52.188;21.024;2022-09-03T04:42:31;77087.53;;;-141.45;67.07
31403;BME280;18039;52.188;21.024;2022-09-03T04:44:58;77075.38;;;-141.45;66.82
31403;BME280;18039;52.188;21.024;2022-09-03T04:47:25;77067.28;;;-141.45;66.77
31403;BME280;18039;52.188;21.024;2022-09-03T04:49:53;77063.22;;;-141.45;66.58
31403;BME280;18039;52.188;21.024;2022-09-03T04:52:21;77047.00;;;-141.45;66.38
31403;BME280;18039;52.188;21.024;2022-09-03T04:54:48;77042.94;;;-141.45;65.74
31403;BME280;18039;52.188;21.024;2022-09-03T04:57:15;77042.94;;;-141.45;65.77
31403;BME280;18039;52.188;21.024;2022-09-03T04:59:42;77034.84;;;-141.45;65.93
31403;BME280;18039;52.188;21.024;2022-09-03T05:02:09;77040.91;;;-141.45;65.57
31403;BME280;18039;52.188;21.024;2022-09-03T05:04:36;77030.78;;;-141.45;65.29
31403;BME280;18039;52.188;21.024;2022-09-03T05:07:03;77026.72;;;-141.45;64.80
31403;BME280;18039;52.188;21.024;2022-09-03T05:09:30;77028.75;;;-141.45;64.72
31403;BME280;18039;52.188;21.024;2022-09-03T05:11:57;77016.59;;;-141.45;64.66
31403;BME280;18039;52.188;21.024;2022-09-03T05:14:24;77004.41;;;-141.45;64.49
31403;BME280;18039;52.188;21.024;2022-09-03T05:16:51;76998.34;;;-141.45;63.84
31403;BME280;18039;52.188;21.024;2022-09-03T05:19:19;76982.13;;;-141.45;63.02
31403;BME280;18039;52.188;21.024;2022-09-03T05:21:46;76986.16;;;-141.45;63.22
31403;BME280;18039;52.188;21.024;2022-09-03T05:24:13;76971.97;;;-141.45;62.92
31403;BME280;18039;52.188;21.024;2022-09-03T05:26:41;76961.84;;;-141.45;62.94
31403;BME280;18039;52.188;21.024;2022-09-03T05:29:08;76949.69;;;-141.45;62.52
31403;BME280;18039;52.188;21.024;2022-09-03T05:31:36;76937.53;;;-141.45;62.54
31403;BME280;18039;52.188;21.024;2022-09-03T05:34:05;76925.34;;;-141.45;62.34
31403;BME280;18039;52.188;21.024;2022-09-03T05:36:35;76911.16;;;-141.45;62.16
31403;BME280;18039;52.188;21.024;2022-09-03T05:39:03;76888.88;;;-141.45;61.78
31403;BME280;18039;52.188;21.024;2022-09-03T05:41:31;76876.69;;;-141.45;61.26
31403;BME280;18039;52.188;21.024;2022-09-03T05:44:00;76856.44;;;-141.45;61.19
31403;BME280;18039;52.188;21.024;2022-09-03T05:46:32;76864.53;;;-141.45;60.05
31403;BME280;18039;52.188;21.024;2022-09-03T05:49:00;76848.31;;;-141.45;60.02
31403;BME280;18039;52.188;21.024;2022-09-03T05:51:29;76836.16;;;-141.45;59.54
31403;BME280;18039;52.188;21.024;2022-09-03T05:53:56;76824.00;;;-141.45;59.32
31403;BME280;18039;52.188;21.024;2022-09-03T05:56:26;76811.81;;;-141.45;58.86
31403;BME280;18039;52.188;21.024;2022-09-03T05:58:56;76795.59;;;-141.45;58.75
31403;BME280;18039;52.188;21.024;2022-09-03T06:01:26;76779.38;;;-141.45;58.60
31403;BME280;18039;52.188;21.024;2022-09-03T06:03:58;76763.16;;;-141.45;57.88
31403;BME280;18039;52.188;21.024;2022-09-03T06:06:27;76748.97;;;-141.45;57.38
31403;BME280;18039;52.188;21.024;2022-09-03T06:08:57;76755.06;;;-141.45;56.69
31403;BME280;18039;52.188;21.024;2022-09-03T06:11:25;76751.00;;;-141.45;56.87
31403;BME280;18039;52.188;21.024;2022-09-03T06:14:00;76755.06;;;-141.45;56.98
31403;BME280;18039;52.188;21.024;2022-09-03T06:16:29;76738.84;;;-141.45;57.18
31403;BME280;18039;52.188;21.024;2022-09-03T06:18:58;76730.75;;;-141.45;56.71
31403;BME280;18039;52.188;21.024;2022-09-03T06:21:27;76710.47;;;-141.45;56.47
31403;BME280;18039;52.188;21.024;2022-09-03T06:23:55;76698.31;;;-141.45;56.48
31403;BME280;18039;52.188;21.024;2022-09-03T06:26:26;76686.13;;;-141.45;56.27
31403;BME280;18039;52.188;21.024;2022-09-03T06:28:55;76665.88;;;-141.45;56.33
31403;BME280;18039;52.188;21.024;2022-09-03T06:31:24;76661.81;;;-141.45;55.33
31403;BME280;18039;52.188;21.024;2022-09-03T06:33:51;76653.72;;;-141.45;55.70
31403;BME280;18039;52.188;21.024;2022-09-03T06:36:22;76641.53;;;-141.45;55.90
31403;BME280;18039;52.188;21.024;2022-09-03T06:38:52;76629.38;;;-141.45;55.93
31403;BME280;18039;52.188;21.024;2022-09-03T06:41:22;76609.09;;;-141.45;54.99
31403;BME280;18039;52.188;21.024;2022-09-03T06:43:56;76592.91;;;-141.45;54.75
31403;BME280;18039;52.188;21.024;2022-09-03T06:46:24;76584.78;;;-141.45;54.17
31403;BME280;18039;52.188;21.024;2022-09-03T06:48:51;76572.63;;;-141.45;54.54
31403;BME280;18039;52.188;21.024;2022-09-03T06:51:21;76560.47;;;-141.45;54.54
31403;BME280;18039;52.188;21.024;2022-09-03T06:53:51;76556.41;;;-141.45;54.23
31403;BME280;18039;52.188;21.024;2022-09-03T06:56:22;76540.19;;;-141.45;54.50
31403;BME280;18039;52.188;21.024;2022-09-03T06:58:54;76523.97;;;-141.45;54.22
31403;BME280;18039;52.188;21.024;2022-09-03T07:01:26;76511.81;;;-141.45;52.79
31403;BME280;18039;52.188;21.024;2022-09-03T07:03:59;76495.59;;;-141.45;51.85
31403;BME280;18039;52.188;21.024;2022-09-03T07:06:29;76483.44;;;-141.45;50.28
31403;BME280;18039;52.188;21.024;2022-09-03T07:08:57;76479.38;;;-141.45;50.58
31403;BME280;18039;52.188;21.024;2022-09-03T07:11:27;76467.22;;;-141.45;50.62
31403;BME280;18039;52.188;21.024;2022-09-03T07:13:57;76455.06;;;-141.45;50.57
31403;BME280;18039;52.188;21.024;2022-09-03T07:16:32;76438.84;;;-141.45;49.87
31403;BME280;18039;52.188;21.024;2022-09-03T07:19:01;76430.72;;;-141.45;50.25
31403;BME280;18039;52.188;21.024;2022-09-03T07:21:31;76422.63;;;-141.45;49.69
31403;BME280;18039;52.188;21.024;2022-09-03T07:23:59;76410.47;;;-141.45;49.59
31403;BME280;18039;52.188;21.024;2022-09-03T07:26:29;76400.31;;;-141.45;49.87
31403;BME280;18039;52.188;21.024;2022-09-03T07:28:57;76386.13;;;-141.45;49.39
31403;BME280;18039;52.188;21.024;2022-09-03T07:31:29;76378.03;;;-141.45;49.41
31403;BME280;18039;52.188;21.024;2022-09-03T07:34:02;76373.97;;;-141.45;48.33
31403;BME280;18039;52.188;21.024;2022-09-03T07:36:41;76357.75;;;-141.45;48.70
31403;BME280;18039;52.188;21.024;2022-09-03T07:39:10;76341.53;;;-141.45;48.96
31403;BME280;18039;52.188;21.024;2022-09-03T07:41:39;76325.31;;;-141.45;48.00
31403;BME280;18039;52.188;21.024;2022-09-03T07:44:16;76309.13;;;-141.45;47.85
31403;BME280;18039;52.188;21.024;2022-09-03T07:46:46;76301.00;;;-141.45;47.95
31403;BME280;18039;52.188;21.024;2022-09-03T07:49:14;76292.91;;;-141.45;47.49
31403;BME280;18039;52.188;21.024;2022-09-03T07:51:41;76280.72;;;-141.45;46.60
31403;BME280;18039;52.188;21.024;2022-09-03T07:54:09;76262.50;;;-141.45;46.68
31403;BME280;18039;52.188;21.024;2022-09-03T07:56:38;76248.31;;;-141.45;46.84
31403;BME280;18039;52.188;21.024;2022-09-03T07:59:06;76236.16;;;-141.45;46.37
31403;BME280;18039;52.188;21.024;2022-09-03T08:01:34;76232.09;;;-141.45;46.38
31403;BME280;18039;52.188;21.024;2022-09-03T08:04:02;76232.09;;;-141.45;46.20
31403;BME280;18039;52.188;21.024;2022-09-03T08:06:31;76223.97;;;-141.45;44.43
31403;BME280;18039;52.188;21.024;2022-09-03T08:09:02;76209.78;;;-141.45;44.15
31403;BME280;18039;52.188;21.024;2022-09-03T08:11:35;76195.59;;;-141.45;44.00
31403;BME280;18039;52.188;21.024;2022-09-03T08:14:05;76191.56;;;-141.45;43.93
31403;BME280;18039;52.188;21.024;2022-09-03T08:16:38;76171.28;;;-141.45;43.67
31403;BME280;18039;52.188;21.024;2022-09-03T08:19:06;76159.13;;;-141.45;42.56
31403;BME280;18039;52.188;21.024;2022-09-03T08:21:34;76151.00;;;-141.45;42.91
31403;BME280;18039;52.188;21.024;2022-09-03T08:24:02;76142.91;;;-141.45;43.11
31403;BME280;18039;52.188;21.024;2022-09-03T08:26:34;76138.84;;;-141.45;43.05
31403;BME280;18039;52.188;21.024;2022-09-03T08:29:02;76122.63;;;-141.45;43.29
31403;BME280;18039;52.188;21.024;2022-09-03T08:31:31;76110.47;;;-141.45;42.99
31403;BME280;18039;52.188;21.024;2022-09-03T08:34:00;76110.47;;;-141.45;41.36
31403;BME280;18039;52.188;21.024;2022-09-03T08:36:37;76092.25;;;-141.45;40.43
31403;BME280;18039;52.188;21.024;2022-09-03T08:39:06;76078.06;;;-141.45;40.31
31403;BME280;18039;52.188;21.024;2022-09-03T08:44:33;76057.78;;;-141.45;40.42
31403;BME280;18039;52.188;21.024;2022-09-03T08:52:44;76025.34;;;-141.45;39.66
31403;BME280;18039;52.188;21.024;2022-09-03T08:58:05;75996.97;;;-141.45;38.42
31403;BME280;18039;52.188;21.024;2022-09-03T09:03:54;75968.59;;;-141.45;38.76
31403;BME280;18039;52.188;21.024;2022-09-03T09:06:38;75956.44;;;-141.45;38.01
31403;BME280;18039;52.188;21.024;2022-09-03T09:09:35;75936.19;;;-141.45;37.41
31403;BME280;18039;52.188;21.024;2022-09-03T09:15:10;75913.88;;;-141.45;36.60
31403;BME280;18039;52.188;21.024;2022-09-03T09:20:49;75911.84;;;-141.45;36.80
31403;BME280;18039;52.188;21.024;2022-09-03T09:26:06;75899.69;;;-141.45;36.64
31403;BME280;18039;52.188;21.024;2022-09-03T09:28:37;75893.63;;;-141.45;36.52
31403;BME280;18039;52.188;21.024;2022-09-03T09:31:06;75887.53;;;-141.45;35.99
31403;BME280;18039;52.188;21.024;2022-09-03T09:33:36;75883.47;;;-141.45;36.29
31403;BME280;18039;52.188;21.024;2022-09-03T09:36:07;75879.44;;;-141.45;36.49
31403;BME280;18039;52.188;21.024;2022-09-03T09:38:37;75871.31;;;-141.45;35.91
31403;BME280;18039;52.188;21.024;2022-09-03T09:41:13;75859.16;;;-141.45;35.65
31403;BME280;18039;52.188;21.024;2022-09-03T09:43:42;75859.16;;;-141.45;35.50
31403;BME280;18039;52.188;21.024;2022-09-03T09:46:20;75851.06;;;-141.45;35.59
31403;BME280;18039;52.188;21.024;2022-09-03T09:48:51;75847.00;;;-141.45;35.74
31403;BME280;18039;52.188;21.024;2022-09-03T09:51:27;75838.91;;;-141.45;34.48
31403;BME280;18039;52.188;21.024;2022-09-03T09:54:23;75838.91;;;-141.45;34.53
31403;BME280;18039;52.188;21.024;2022-09-03T09:57:02;75842.94;;;-141.45;34.69
31403;BME280;18039;52.188;21.024;2022-09-03T09:59:29;75842.94;;;-141.45;34.80
31403;BME280;18039;52.188;21.024;2022-09-03T10:02:10;75826.72;;;-141.45;35.31
31403;BME280;18039;52.188;21.024;2022-09-03T10:04:44;75822.69;;;-141.45;34.81
31403;BME280;18039;52.188;21.024;2022-09-03T10:07:27;75814.56;;;-141.45;35.05
31403;BME280;18039;52.188;21.024;2022-09-03T10:10:25;75814.56;;;-141.45;35.04
31403;BME280;18039;52.188;21.024;2022-09-03T10:13:12;75806.47;;;-141.45;34.69
31403;BME280;18039;52.188;21.024;2022-09-03T10:15:51;75802.41;;;-141.45;35.30
31403;BME280;18039;52.188;21.024;2022-09-03T10:18:50;75788.22;;;-141.45;34.76
31403;BME280;18039;52.188;21.024;2022-09-03T10:24:18;75786.19;;;-141.45;33.49
31403;BME280;18039;52.188;21.024;2022-09-03T10:26:49;75784.19;;;-141.45;33.34
31403;BME280;18039;52.188;21.024;2022-09-03T10:29:20;75786.19;;;-141.45;33.59
31403;BME280;18039;52.188;21.024;2022-09-03T10:32:06;75786.19;;;-141.45;33.67
31403;BME280;18039;52.188;21.024;2022-09-03T10:40:16;75770.00;;;-141.45;33.93
31403;BME280;18039;52.188;21.024;2022-09-03T10:51:11;75737.56;;;-141.45;33.24
31403;BME280;18039;52.188;21.024;2022-09-03T10:54:04;75731.47;;;-141.45;33.07
31403;BME280;18039;52.188;21.024;2022-09-03T10:56:58;75727.44;;;-141.45;33.30
31403;BME280;18039;52.188;21.024;2022-09-03T11:05:06;75729.47;;;-141.45;33.15
31403;BME280;18039;52.188;21.024;2022-09-03T11:07:38;75731.47;;;-141.45;33.41
31403;BME280;18039;52.188;21.024;2022-09-03T11:10:12;75731.47;;;-141.45;33.31
31403;BME280;18039;52.188;21.024;2022-09-03T11:13:06;75713.25;;;-141.45;33.49
31403;BME280;18039;52.188;21.024;2022-09-03T11:15:53;75705.13;;;-141.45;33.12
31403;BME280;18039;52.188;21.024;2022-09-03T11:18:48;75707.16;;;-141.45;33.06
31403;BME280;18039;52.188;21.024;2022-09-03T11:21:14;75697.03;;;-141.45;33.43
31403;BME280;18039;52.188;21.024;2022-09-03T11:23:45;75684.88;;;-141.45;33.02
31403;BME280;18039;52.188;21.024;2022-09-03T11:26:18;75680.81;;;-141.45;32.75
31403;BME280;18039;52.188;21.024;2022-09-03T11:29:10;75680.81;;;-141.45;33.18
31403;BME280;18039;52.188;21.024;2022-09-03T11:34:14;75668.66;;;-141.45;33.63
31403;BME280;18039;52.188;21.024;2022-09-03T11:37:05;75660.56;;;-141.45;33.11
31403;BME280;18039;52.188;21.024;2022-09-03T11:39:35;75656.50;;;-141.45;33.48
31403;BME280;18039;52.188;21.024;2022-09-03T11:42:10;75644.34;;;-141.45;33.68
31403;BME280;18039;52.188;21.024;2022-09-03T11:44:43;75636.22;;;-141.45;33.37
31403;BME280;18039;52.188;21.024;2022-09-03T11:47:22;75636.22;;;-141.45;33.06
31403;BME280;18039;52.188;21.024;2022-09-03T11:49:52;75636.22;;;-141.45;33.41
31403;BME280;18039;52.188;21.024;2022-09-03T11:52:31;75630.16;;;-141.45;33.59
31403;BME280;18039;52.188;21.024;2022-09-03T11:54:58;75624.06;;;-141.45;33.37
31403;BME280;18039;52.188;21.024;2022-09-03T11:57:28;75611.91;;;-141.45;33.25
31403;BME280;18039;52.188;21.024;2022-09-03T12:00:11;75601.78;;;-141.45;33.43
31403;BME280;18039;52.188;21.024;2022-09-03T12:02:44;75595.69;;;-141.45;33.43
31403;BME280;18039;52.188;21.024;2022-09-03T12:08:09;75577.47;;;-141.45;33.17
31403;BME280;18039;52.188;21.024;2022-09-03T12:10:52;75571.38;;;-141.45;33.13
31403;BME280;18039;52.188;21.024;2022-09-03T12:14:26;75573.41;;;-141.45;32.89
31403;BME280;18039;52.188;21.024;2022-09-03T12:17:10;75563.28;;;-141.45;32.93
31403;BME280;18039;52.188;21.024;2022-09-03T12:19:46;75557.19;;;-141.45;32.54
31403;BME280;18039;52.188;21.024;2022-09-03T12:22:20;75520.72;;;-141.45;32.24
31403;BME280;18039;52.188;21.024;2022-09-03T12:24:48;75502.50;;;-141.45;32.00
31403;BME280;18039;52.188;21.024;2022-09-03T12:27:22;75506.53;;;-141.45;31.56
31403;BME280;18039;52.188;21.024;2022-09-03T12:29:57;75510.59;;;-141.45;31.44
31403;BME280;18039;52.188;21.024;2022-09-03T12:32:33;75510.59;;;-141.45;31.50
31403;BME280;18039;52.188;21.024;2022-09-03T12:35:18;75512.63;;;-141.45;31.67
31403;BME280;18039;52.188;21.024;2022-09-03T12:38:06;75508.56;;;-141.45;32.01
31403;BME280;18039;52.188;21.024;2022-09-03T12:40:41;75500.47;;;-141.45;32.68
31403;BME280;18039;52.188;21.024;2022-09-03T12:43:29;75488.31;;;-141.45;32.89
31403;BME280;18039;52.188;21.024;2022-09-03T12:46:13;75488.31;;;-141.45;32.25
31403;BME280;18039;52.188;21.024;2022-09-03T12:48:53;75463.97;;;-141.45;32.21
31403;BME280;18039;52.188;21.024;2022-09-03T12:51:42;75445.75;;;-141.45;31.39
31403;BME280;18039;52.188;21.024;2022-09-03T12:54:19;75449.81;;;-141.45;31.07
31403;BME280;18039;52.188;21.024;2022-09-03T12:56:53;75441.69;;;-141.45;31.08
31403;BME280;18039;52.188;21.024;2022-09-03T12:59:24;75433.59;;;-141.45;31.74
31403;BME280;18039;52.188;21.024;2022-09-03T13:02:01;75427.50;;;-141.45;31.12
31403;BME280;18039;52.188;21.024;2022-09-03T13:04:34;75427.50;;;-141.45;30.97
31403;BME280;18039;52.188;21.024;2022-09-03T13:07:12;75429.53;;;-141.45;31.61
31403;BME280;18039;52.188;21.024;2022-09-03T13:09:41;75433.59;;;-141.45;31.69
31403;BME280;18039;52.188;21.024;2022-09-03T13:12:23;75441.69;;;-141.45;31.59
31403;BME280;18039;52.188;21.024;2022-09-03T13:14:55;75441.69;;;-141.45;31.38
31403;BME280;18039;52.188;21.024;2022-09-03T13:34:49;75393.06;;;-141.45;32.28
31403;BME280;18039;52.188;21.024;2022-09-03T13:37:34;75389.00;;;-141.45;31.56
31403;BME280;18039;52.188;21.024;2022-09-03T13:40:22;75405.22;;;-141.45;31.35
31403;BME280;18039;52.188;21.024;2022-09-03T13:42:54;75421.44;;;-141.45;31.73
31403;BME280;18039;52.188;21.024;2022-09-03T13:45:29;75421.44;;;-141.45;31.94
31403;BME280;18039;52.188;21.024;2022-09-03T13:48:01;75415.34;;;-141.45;31.70
31403;BME280;18039;52.188;21.024;2022-09-03T13:50:58;75413.31;;;-141.45;31.76
31403;BME280;18039;52.188;21.024;2022-09-03T13:53:38;75401.16;;;-141.45;31.76
31403;BME280;18039;52.188;21.024;2022-09-03T13:59:12;75372.78;;;-141.45;31.46
31403;BME280;18039;52.188;21.024;2022-09-03T14:07:27;75372.78;;;-141.45;31.73
31403;BME280;18039;52.188;21.024;2022-09-03T14:18:41;75360.63;;;-141.45;31.42
31403;BME280;18039;52.188;21.024;2022-09-03T14:21:22;75384.97;;;-141.45;31.83
31403;BME280;18039;52.188;21.024;2022-09-03T14:24:14;75384.97;;;-141.45;32.04
31403;BME280;18039;52.188;21.024;2022-09-03T14:26:51;75384.97;;;-141.45;31.62
31403;BME280;18039;52.188;21.024;2022-09-03T14:29:24;75368.75;;;-141.45;31.37
31403;BME280;18039;52.188;21.024;2022-09-03T14:34:57;75340.38;;;-141.45;31.26
31403;BME280;18039;52.188;21.024;2022-09-03T14:37:37;75336.31;;;-141.45;30.66
31403;BME280;18039;52.188;21.024;2022-09-03T14:40:22;75340.38;;;-141.45;31.24
31403;BME280;18039;52.188;21.024;2022-09-03T14:52:06;75376.84;;;-141.45;31.24
31403;BME280;18039;52.188;21.024;2022-09-03T15:07:20;75405.22;;;-141.45;31.22
31403;BME280;18039;52.188;21.024;2022-09-03T15:12:41;75409.28;;;-141.45;31.80
31403;BME280;18039;52.188;21.024;2022-09-03T15:15:18;75425.47;;;-141.45;31.67
31403;BME280;18039;52.188;21.024;2022-09-03T15:26:17;75480.19;;;-141.45;32.40
31403;BME280;18039;52.188;21.024;2022-09-03T15:32:01;75484.25;;;-141.45;32.62
31403;BME280;18039;52.188;21.024;2022-09-03T15:34:54;75490.31;;;-141.45;32.86
31403;BME280;18039;52.188;21.024;2022-09-03T15:37:27;75490.31;;;-141.45;32.78
31403;BME280;18039;52.188;21.024;2022-09-03T15:40:03;75488.31;;;-141.45;33.22
31403;BME280;18039;52.188;21.024;2022-09-03T15:42:35;75486.28;;;-141.45;33.17